Time;durP1;ratioP1;P1;durP2;ratioP2;P2;SDS_P1;SDS_P2;PMS_P1;PMS_P2;Temp;Humidity;BMP_temperature;BMP_pressure;BME280_temperature;BME280_humidity;BME280_pressure;Samples;Min_cycle;Max_cycle;Signal;HPM_P1;HPM_P2
2021/12/04 00:00:50;;;;;;;31.80;25.20;;;;;;;2.95;100.00;99870.22;4882048;29;20572;-77
2021/12/04 00:03:19;;;;;;;32.67;25.92;;;;;;;2.93;100.00;99867.72;4871378;29;20099;-76
2021/12/04 00:05:50;;;;;;;34.95;27.38;;;;;;;2.94;100.00;99866.81;4886169;29;20056;-76
2021/12/04 00:08:15;;;;;;;34.25;27.50;;;;;;;2.92;100.00;99851.38;4877487;29;20069;-76
2021/12/04 00:10:41;;;;;;;32.10;27.05;;;;;;;2.91;100.00;99847.13;4872215;29;20468;-75
2021/12/04 00:13:07;;;;;;;32.80;27.05;;;;;;;2.85;100.00;99839.03;4873185;29;20456;-76
2021/12/04 00:15:32;;;;;;;33.88;26.33;;;;;;;2.92;100.00;99840.19;4885571;29;20033;-76
2021/12/04 00:17:59;;;;;;;28.58;24.42;;;;;;;2.93;100.00;99840.06;4871857;29;20045;-76
2021/12/04 00:20:27;;;;;;;31.85;26.08;;;;;;;2.90;100.00;99836.88;4882967;29;20679;-75
2021/12/04 00:22:58;;;;;;;28.98;24.48;;;;;;;2.93;100.00;99836.66;4884962;29;20115;-76
2021/12/04 00:25:25;;;;;;;29.63;25.13;;;;;;;2.93;100.00;99826.28;4885142;29;20036;-75
2021/12/04 00:27:50;;;;;;;31.13;26.08;;;;;;;2.95;100.00;99841.72;4865987;29;20047;-76
2021/12/04 00:30:16;;;;;;;32.22;25.65;;;;;;;2.86;100.00;99846.69;4873531;29;20028;-75
2021/12/04 00:32:52;;;;;;;30.77;25.27;;;;;;;2.91;100.00;99843.72;4856574;29;20664;-75
2021/12/04 00:35:33;;;;;;;31.65;26.42;;;;;;;2.91;100.00;99835.94;4885925;29;20047;-76
2021/12/04 00:51:24;;;;;;;37.45;29.55;;;;;;;2.91;100.00;99838.53;4869422;29;20119;-76
2021/12/04 00:53:54;;;;;;;40.92;29.65;;;;;;;2.84;100.00;99833.00;4889127;29;20048;-76
2021/12/04 00:56:21;;;;;;;37.83;28.77;;;;;;;2.89;100.00;99836.06;4871532;29;20037;-76
2021/12/04 00:58:47;;;;;;;39.53;30.30;;;;;;;2.96;100.00;99839.00;4873036;29;20041;-75
2021/12/04 01:01:15;;;;;;;39.95;29.95;;;;;;;2.95;100.00;99837.34;4883370;29;20099;-76
2021/12/04 01:03:40;;;;;;;40.78;29.73;;;;;;;3.00;100.00;99843.00;4854022;29;20545;-76
2021/12/04 01:06:06;;;;;;;39.40;30.88;;;;;;;2.91;100.00;99839.34;4872065;29;20040;-75
2021/12/04 01:08:33;;;;;;;40.53;30.52;;;;;;;2.99;100.00;99832.75;4870860;29;20036;-75
2021/12/04 01:11:02;;;;;;;39.70;30.30;;;;;;;2.94;100.00;99840.91;4890228;29;20087;-77
2021/12/04 01:13:29;;;;;;;39.95;29.73;;;;;;;3.04;100.00;99848.78;4872641;29;20072;-76
2021/12/04 01:15:55;;;;;;;42.33;29.70;;;;;;;3.06;100.00;99847.69;4876143;29;20139;-76
2021/12/04 01:18:20;;;;;;;37.58;29.85;;;;;;;2.99;100.00;99846.53;4886280;29;20128;-75
2021/12/04 01:20:46;;;;;;;40.65;29.98;;;;;;;3.01;100.00;99843.81;4890014;29;20490;-75
2021/12/04 01:23:12;;;;;;;36.30;28.35;;;;;;;3.02;100.00;99848.06;4869213;29;20036;-76
2021/12/04 01:25:39;;;;;;;38.80;29.50;;;;;;;2.99;100.00;99856.88;4874472;29;20063;-76
2021/12/04 01:28:05;;;;;;;37.35;28.52;;;;;;;2.96;100.00;99851.13;4875402;29;20071;-77
2021/12/04 01:30:31;;;;;;;34.60;28.58;;;;;;;2.99;100.00;99843.94;4876185;29;20080;-75
2021/12/04 01:32:57;;;;;;;34.45;27.42;;;;;;;2.97;100.00;99848.41;4876864;29;20043;-75
2021/12/04 01:35:22;;;;;;;36.22;27.63;;;;;;;2.95;100.00;99846.91;4890331;29;20048;-75
2021/12/04 01:37:48;;;;;;;37.53;27.95;;;;;;;3.02;100.00;99854.06;4859943;29;20565;-76
2021/12/04 01:40:14;;;;;;;33.70;27.52;;;;;;;2.97;100.00;99857.97;4888133;29;20088;-74
2021/12/04 01:42:40;;;;;;;34.95;27.85;;;;;;;2.95;100.00;99850.31;4877088;29;20496;-75
2021/12/04 01:45:07;;;;;;;33.88;27.77;;;;;;;3.01;100.00;99849.81;4891426;29;20044;-77
2021/12/04 01:47:33;;;;;;;34.38;27.15;;;;;;;2.99;100.00;99853.47;4877690;29;20064;-75
2021/12/04 01:50:01;;;;;;;33.92;26.63;;;;;;;3.03;100.00;99858.31;4877148;29;20068;-76
2021/12/04 01:52:28;;;;;;;35.50;27.70;;;;;;;2.92;100.00;99855.75;4875227;29;20037;-75
2021/12/04 01:54:54;;;;;;;33.13;26.10;;;;;;;3.01;100.00;99854.19;4882172;29;20044;-76
2021/12/04 01:57:24;;;;;;;38.08;28.40;;;;;;;2.96;100.00;99861.47;4875799;29;20135;-76
2021/12/04 01:59:51;;;;;;;36.60;26.48;;;;;;;2.86;100.00;99864.81;4875782;29;20073;-76
2021/12/04 02:02:17;;;;;;;33.35;25.38;;;;;;;2.82;100.00;99859.97;4879323;29;20512;-75
2021/12/04 02:04:43;;;;;;;35.75;25.80;;;;;;;3.00;100.00;99861.13;4876124;29;20072;-75
2021/12/04 02:07:10;;;;;;;33.63;23.42;;;;;;;2.98;100.00;99859.63;4875953;29;20567;-77
2021/12/04 02:09:36;;;;;;;32.42;23.25;;;;;;;3.03;100.00;99860.91;4876501;29;20036;-75
2021/12/04 02:12:05;;;;;;;34.60;22.23;;;;;;;2.96;100.00;99856.31;4891310;29;20052;-75
2021/12/04 02:14:35;;;;;;;31.25;23.30;;;;;;;3.03;100.00;99863.50;4888547;29;20520;-75
2021/12/04 02:17:03;;;;;;;33.80;23.02;;;;;;;2.96;100.00;99864.91;4890801;29;20029;-75
2021/12/04 02:19:30;;;;;;;35.03;24.35;;;;;;;2.98;100.00;99863.03;4887057;29;20512;-76
2021/12/04 02:21:56;;;;;;;32.15;23.25;;;;;;;2.93;100.00;99858.19;4862809;29;20040;-75
2021/12/04 02:24:22;;;;;;;35.78;23.38;;;;;;;2.89;100.00;99861.97;4874772;29;20040;-75
2021/12/04 02:26:49;;;;;;;33.22;23.90;;;;;;;2.81;100.00;99861.75;4864016;29;20180;-76
2021/12/04 02:29:16;;;;;;;35.28;24.40;;;;;;;2.94;100.00;99864.22;4890301;29;20040;-75
2021/12/04 02:31:51;;;;;;;33.15;23.13;;;;;;;2.96;100.00;99857.16;4876564;29;20079;-76
2021/12/04 02:34:21;;;;;;;33.35;22.83;;;;;;;2.91;100.00;99861.84;4880318;29;20037;-75
2021/12/04 02:36:47;;;;;;;38.75;23.70;;;;;;;3.04;100.00;99853.97;4887666;29;20037;-75
2021/12/04 02:39:23;;;;;;;38.38;25.58;;;;;;;3.00;100.00;99837.81;4856855;29;20045;-75
2021/12/04 02:41:48;;;;;;;39.92;25.48;;;;;;;2.98;100.00;99850.06;4875657;29;20036;-75
2021/12/04 02:44:14;;;;;;;40.00;26.35;;;;;;;2.92;100.00;99845.38;4887636;29;20036;-75
2021/12/04 02:46:39;;;;;;;39.45;25.15;;;;;;;3.00;100.00;99845.59;4890658;29;20044;-76
2021/12/04 02:49:06;;;;;;;39.00;26.58;;;;;;;2.99;100.00;99843.94;4891786;29;20055;-75
2021/12/04 02:51:32;;;;;;;38.50;26.48;;;;;;;2.92;100.00;99847.97;4891538;29;20037;-75
2021/12/04 02:53:58;;;;;;;41.60;27.35;;;;;;;2.91;100.00;99841.13;4871929;29;20068;-76
2021/12/04 02:56:25;;;;;;;44.60;26.08;;;;;;;2.90;100.00;99837.72;4890625;29;20053;-75
2021/12/04 02:58:54;;;;;;;39.45;26.17;;;;;;;2.90;100.00;99821.34;4889962;29;20033;-76
2021/12/04 03:01:20;;;;;;;46.03;27.65;;;;;;;2.87;100.00;99831.97;4874903;29;20539;-76
2021/12/04 03:03:47;;;;;;;45.58;29.52;;;;;;;2.90;100.00;99832.53;4864338;29;20068;-76
2021/12/04 03:06:13;;;;;;;47.22;29.85;;;;;;;2.85;100.00;99826.06;4873463;29;20064;-75
2021/12/04 03:08:38;;;;;;;45.10;28.67;;;;;;;2.85;100.00;99828.66;4875481;29;20032;-75
2021/12/04 03:11:04;;;;;;;49.75;30.48;;;;;;;2.82;100.00;99828.88;4882526;29;20556;-77
2021/12/04 03:13:30;;;;;;;48.40;29.38;;;;;;;2.84;100.00;99824.41;4875890;29;20045;-74
2021/12/04 03:15:58;;;;;;;47.55;29.92;;;;;;;2.90;100.00;99826.53;4890739;29;20029;-75
2021/12/04 03:18:23;;;;;;;47.55;29.45;;;;;;;2.84;100.00;99827.81;4874885;29;20029;-75
2021/12/04 03:20:51;;;;;;;47.40;29.27;;;;;;;2.92;100.00;99829.84;4859943;29;20162;-76
2021/12/04 03:23:26;;;;;;;44.33;28.95;;;;;;;2.88;100.00;99825.81;4892308;29;20051;-75
2021/12/04 03:25:55;;;;;;;46.35;28.63;;;;;;;2.83;100.00;99822.78;4877230;29;20127;-75
2021/12/04 03:28:20;;;;;;;47.25;29.00;;;;;;;2.90;100.00;99823.94;4886062;29;20040;-75
2021/12/04 03:30:52;;;;;;;50.58;30.83;;;;;;;2.82;100.00;99821.94;4862046;29;20037;-75
2021/12/04 03:41:18;;;;;;;49.47;31.45;;;;;;;2.90;100.00;99804.06;4874329;29;20131;-76
2021/12/04 03:43:44;;;;;;;49.85;31.23;;;;;;;2.96;100.00;99809.66;4892484;29;20048;-76
2021/12/04 03:46:14;;;;;;;51.80;31.02;;;;;;;2.96;100.00;99814.84;4892283;29;20040;-75
2021/12/04 03:51:10;;;;;;;50.22;31.65;;;;;;;2.89;100.00;99802.38;4874495;29;20069;-75
2021/12/04 03:53:36;;;;;;;52.38;31.65;;;;;;;2.87;100.00;99799.09;4875111;29;20032;-75
2021/12/04 03:56:03;;;;;;;50.70;31.30;;;;;;;2.98;100.00;99806.03;4889125;29;20045;-76
2021/12/04 03:58:29;;;;;;;48.63;31.13;;;;;;;2.94;100.00;99802.03;4871386;29;20177;-75
2021/12/04 04:00:56;;;;;;;51.80;31.13;;;;;;;2.94;100.00;99791.69;4876441;29;20154;-75
2021/12/04 04:03:25;;;;;;;55.38;32.28;;;;;;;2.90;100.00;99798.88;4877351;29;20059;-75
2021/12/04 04:05:50;;;;;;;49.70;31.08;;;;;;;2.87;100.00;99795.69;4890536;29;20061;-75
2021/12/04 04:08:17;;;;;;;52.53;30.73;;;;;;;2.84;100.00;99785.56;4882550;29;20044;-76
2021/12/04 04:10:43;;;;;;;55.05;31.00;;;;;;;2.82;100.00;99785.69;4873861;29;20041;-75
2021/12/04 04:13:11;;;;;;;51.70;32.47;;;;;;;2.85;100.00;99777.69;4891268;29;20127;-76
2021/12/04 04:15:38;;;;;;;52.72;30.63;;;;;;;2.91;100.00;99781.56;4875956;29;20035;-75
2021/12/04 04:18:04;;;;;;;50.08;30.55;;;;;;;2.85;100.00;99771.69;4891776;29;20044;-75
2021/12/04 04:20:31;;;;;;;51.60;30.80;;;;;;;2.96;100.00;99774.25;4868059;29;20534;-75
2021/12/04 04:22:57;;;;;;;49.42;31.90;;;;;;;2.86;100.00;99768.97;4891527;29;20043;-75
2021/12/04 04:25:23;;;;;;;50.90;31.33;;;;;;;2.90;100.00;99761.75;4873034;29;20044;-74
2021/12/04 04:27:48;;;;;;;46.20;30.63;;;;;;;2.91;100.00;99766.81;4875939;29;20127;-75
2021/12/04 04:30:16;;;;;;;48.38;31.40;;;;;;;2.93;100.00;99769.28;4888460;29;20032;-76
2021/12/04 04:32:44;;;;;;;46.72;30.95;;;;;;;2.88;100.00;99768.81;4867689;29;20122;-75
2021/12/04 04:35:14;;;;;;;49.63;30.90;;;;;;;2.81;100.00;99763.31;4888068;29;20047;-76
2021/12/04 05:02:06;;;;;;;49.35;29.80;;;;;;;2.79;100.00;99774.72;4890229;29;20045;-76
2021/12/04 05:12:52;;;;;;;44.22;28.30;;;;;;;2.65;100.00;99781.81;4877253;29;20036;-75
2021/12/04 05:15:44;;;;;;;46.17;28.88;;;;;;;2.66;100.00;99782.66;4890923;29;20127;-75
2021/12/04 05:21:12;;;;;;;44.38;28.45;;;;;;;2.60;100.00;99783.09;4872822;29;20045;-75
2021/12/04 05:23:50;;;;;;;48.50;29.77;;;;;;;2.56;100.00;99785.09;4867851;29;20048;-75
2021/12/04 05:26:24;;;;;;;48.58;29.35;;;;;;;2.56;100.00;99774.75;4890926;29;20051;-75
2021/12/04 05:28:50;;;;;;;51.58;28.33;;;;;;;2.58;100.00;99779.81;4887596;29;20051;-76
2021/12/04 05:31:16;;;;;;;47.63;29.02;;;;;;;2.59;100.00;99782.28;4890025;29;20045;-76
2021/12/04 05:33:42;;;;;;;43.55;28.13;;;;;;;2.56;100.00;99777.34;4874319;29;20029;-75
2021/12/04 05:36:09;;;;;;;43.00;27.17;;;;;;;2.61;100.00;99775.22;4890700;29;20115;-76
2021/12/04 05:38:36;;;;;;;44.75;27.65;;;;;;;2.62;100.00;99774.31;4877074;29;20075;-76
2021/12/04 05:41:03;;;;;;;42.33;27.42;;;;;;;2.67;100.00;99785.09;4875171;29;20424;-75
2021/12/04 05:43:30;;;;;;;44.38;26.20;;;;;;;2.68;100.00;99781.59;4884535;29;20469;-75
2021/12/04 05:46:16;;;;;;;42.35;25.83;;;;;;;2.65;100.00;99781.81;4875143;29;20040;-76
2021/12/04 05:56:14;;;;;;;44.17;26.38;;;;;;;2.59;100.00;99786.66;4890335;29;20037;-75
2021/12/04 05:58:40;;;;;;;42.53;27.25;;;;;;;2.67;100.00;99776.53;4889824;29;20080;-76
2021/12/04 06:01:07;;;;;;;45.90;28.20;;;;;;;2.76;100.00;99787.94;4874228;29;20063;-76
2021/12/04 06:03:33;;;;;;;48.72;29.08;;;;;;;2.73;100.00;99789.81;4872043;29;20100;-76
2021/12/04 06:06:00;;;;;;;48.00;29.05;;;;;;;2.73;100.00;99792.41;4889948;29;20100;-77
2021/12/04 06:08:26;;;;;;;50.92;29.25;;;;;;;2.73;100.00;99804.50;4874733;29;20049;-75
2021/12/04 06:10:52;;;;;;;50.80;29.00;;;;;;;2.80;100.00;99797.94;4887806;29;20471;-76
2021/12/04 06:13:18;;;;;;;51.92;29.33;;;;;;;2.82;100.00;99797.81;4889758;29;20086;-75
2021/12/04 06:15:44;;;;;;;53.58;29.75;;;;;;;2.80;100.00;99797.09;4877389;29;20406;-75
2021/12/04 06:18:11;;;;;;;56.55;30.27;;;;;;;2.73;100.00;99796.75;4893840;29;20455;-75
2021/12/04 06:23:22;;;;;;;54.83;31.02;;;;;;;2.69;100.00;99797.94;4898592;29;20044;-75
2021/12/04 06:25:49;;;;;;;58.53;31.58;;;;;;;2.66;100.00;99796.41;4901879;29;20127;-76
2021/12/04 06:28:16;;;;;;;55.83;29.77;;;;;;;2.77;100.00;99799.94;4882761;29;20084;-74
2021/12/04 06:30:42;;;;;;;60.25;31.15;;;;;;;2.71;100.00;99799.47;4886853;29;20029;-76
2021/12/04 06:33:12;;;;;;;55.50;31.02;;;;;;;2.78;100.00;99794.63;4897298;29;20041;-75
2021/12/04 06:35:40;;;;;;;56.45;30.52;;;;;;;2.73;100.00;99794.16;4897463;29;20127;-75
2021/12/04 06:38:09;;;;;;;61.97;31.15;;;;;;;2.68;100.00;99791.13;4881063;29;20074;-75
2021/12/04 06:40:35;;;;;;;54.67;30.40;;;;;;;2.67;100.00;99792.88;4893398;29;20555;-77
2021/12/04 06:43:03;;;;;;;64.95;31.85;;;;;;;2.65;100.00;99789.56;4888274;29;20097;-75
2021/12/04 06:45:32;;;;;;;52.42;29.42;;;;;;;2.68;100.00;99794.53;4893358;29;20521;-75
2021/12/04 06:48:20;;;;;;;52.88;28.48;;;;;;;2.68;100.00;99789.34;4892338;29;20390;-75
2021/12/04 06:50:56;;;;;;;50.72;28.85;;;;;;;2.72;100.00;99795.13;4898258;29;20040;-75
2021/12/04 06:53:30;;;;;;;54.90;30.27;;;;;;;2.69;100.00;99787.56;4876433;29;20036;-75
2021/12/04 06:55:58;;;;;;;60.50;30.85;;;;;;;2.61;100.00;99783.00;4893491;29;20025;-75
2021/12/04 06:58:27;;;;;;;55.72;29.50;;;;;;;2.68;100.00;99789.34;4875601;29;20063;-76
2021/12/04 07:00:54;;;;;;;49.92;28.05;;;;;;;2.65;100.00;99786.16;4890849;29;20124;-75
2021/12/04 07:03:20;;;;;;;46.38;25.75;;;;;;;2.71;100.00;99788.28;4879058;29;20093;-76
2021/12/04 07:05:46;;;;;;;48.78;27.33;;;;;;;2.63;100.00;99783.69;4892675;29;20115;-75
2021/12/04 07:08:13;;;;;;;51.95;27.50;;;;;;;2.68;100.00;99784.19;4890616;29;20047;-76
2021/12/04 07:10:39;;;;;;;46.63;25.70;;;;;;;2.67;100.00;99784.28;4877963;29;20065;-76
2021/12/04 07:13:05;;;;;;;44.45;26.48;;;;;;;2.63;100.00;99785.47;4877469;29;20052;-75
2021/12/04 07:15:32;;;;;;;42.78;25.35;;;;;;;2.66;100.00;99790.41;4889471;29;20515;-75
2021/12/04 07:17:59;;;;;;;42.83;25.58;;;;;;;2.61;100.00;99784.78;4880333;29;20040;-76
2021/12/04 07:20:27;;;;;;;40.42;23.85;;;;;;;2.69;100.00;99795.34;4889566;29;20068;-75
2021/12/04 07:22:53;;;;;;;40.92;23.20;;;;;;;2.66;100.00;99787.84;4873824;29;20041;-76
2021/12/04 07:25:19;;;;;;;42.00;23.42;;;;;;;2.56;100.00;99784.28;4878169;29;20395;-76
2021/12/04 07:27:46;;;;;;;37.38;22.75;;;;;;;2.54;100.00;99784.41;4876497;29;20040;-76
2021/12/04 07:30:12;;;;;;;46.50;24.35;;;;;;;2.51;100.00;99785.47;4895520;29;20032;-76
2021/12/04 07:32:38;;;;;;;38.35;23.45;;;;;;;2.55;100.00;99787.84;4877293;29;20052;-75
2021/12/04 07:35:05;;;;;;;39.40;22.17;;;;;;;2.52;100.00;99799.22;4890261;29;20099;-76
2021/12/04 07:37:31;;;;;;;37.90;22.58;;;;;;;2.47;100.00;99791.84;4875501;29;20610;-76
2021/12/04 07:39:57;;;;;;;43.22;23.23;;;;;;;2.47;100.00;99791.03;4870187;29;20044;-75
2021/12/04 07:42:22;;;;;;;35.72;21.48;;;;;;;2.49;100.00;99795.13;4870519;29;20043;-77
2021/12/04 07:44:48;;;;;;;40.00;22.98;;;;;;;2.47;100.00;99791.84;4890042;29;20057;-76
2021/12/04 07:47:14;;;;;;;38.80;22.30;;;;;;;2.50;100.00;99791.59;4889128;29;20144;-77
2021/12/04 07:49:40;;;;;;;34.95;21.80;;;;;;;2.49;100.00;99787.38;4871158;29;20173;-76
2021/12/04 07:52:08;;;;;;;35.75;21.48;;;;;;;2.51;100.00;99788.06;4875302;29;20131;-77
2021/12/04 07:54:35;;;;;;;34.42;21.90;;;;;;;2.52;100.00;99783.69;4889836;29;20059;-76
2021/12/04 07:57:01;;;;;;;34.85;21.17;;;;;;;2.52;100.00;99781.13;4874509;29;20044;-76
2021/12/04 07:59:28;;;;;;;36.28;21.85;;;;;;;2.56;100.00;99782.53;4876083;29;20153;-76
2021/12/04 08:01:56;;;;;;;35.92;22.77;;;;;;;2.59;100.00;99779.69;4876384;29;20024;-76
2021/12/04 08:04:22;;;;;;;39.13;23.25;;;;;;;2.57;100.00;99781.59;4876536;29;20086;-76
2021/12/04 08:06:48;;;;;;;34.38;21.55;;;;;;;2.57;100.00;99781.59;4859835;29;20419;-76
2021/12/04 08:09:14;;;;;;;29.95;20.73;;;;;;;2.61;100.00;99784.78;4873105;29;20033;-77
2021/12/04 08:11:40;;;;;;;35.30;20.27;;;;;;;2.64;100.00;99782.78;4891865;29;20599;-75
2021/12/04 08:14:05;;;;;;;33.15;21.20;;;;;;;2.73;100.00;99787.25;4887603;29;20045;-76
2021/12/04 08:16:32;;;;;;;34.97;21.42;;;;;;;2.77;100.00;99789.56;4875151;29;20061;-76
2021/12/04 08:18:58;;;;;;;35.45;21.52;;;;;;;2.77;100.00;99785.22;4891829;29;20534;-77
2021/12/04 08:21:25;;;;;;;32.33;20.83;;;;;;;2.73;100.00;99794.16;4876168;29;20044;-75
2021/12/04 08:23:50;;;;;;;32.67;21.08;;;;;;;2.79;100.00;99796.28;4873822;29;20048;-75
2021/12/04 08:26:16;;;;;;;34.17;20.77;;;;;;;2.80;100.00;99800.50;4876967;29;20029;-75
2021/12/04 08:28:42;;;;;;;34.20;21.77;;;;;;;2.83;100.00;99802.88;4873802;29;20477;-76
2021/12/04 08:31:08;;;;;;;33.70;21.15;;;;;;;2.90;100.00;99803.19;4877073;29;20044;-76
2021/12/04 08:33:34;;;;;;;33.97;20.95;;;;;;;2.98;100.00;99808.63;4887515;29;20115;-75
2021/12/04 08:36:01;;;;;;;39.17;21.13;;;;;;;2.88;100.00;99803.34;4891192;29;20112;-77
2021/12/04 08:38:27;;;;;;;36.53;21.75;;;;;;;2.85;100.00;99805.34;4889884;29;20032;-76
2021/12/04 08:40:53;;;;;;;34.33;20.85;;;;;;;2.86;100.00;99807.81;4868779;29;20097;-76
2021/12/04 08:43:19;;;;;;;39.03;20.92;;;;;;;2.89;100.00;99814.53;4872497;29;20052;-76
2021/12/04 08:45:45;;;;;;;36.50;20.85;;;;;;;2.84;100.00;99812.28;4889470;29;20055;-76
2021/12/04 08:48:12;;;;;;;36.72;19.88;;;;;;;2.81;100.00;99803.94;4882926;29;20036;-75
2021/12/04 08:50:38;;;;;;;34.63;20.00;;;;;;;2.86;100.00;99800.06;4860365;29;20040;-76
2021/12/04 08:53:05;;;;;;;38.08;20.77;;;;;;;2.89;100.00;99799.78;4871462;29;20040;-76
2021/12/04 08:55:32;;;;;;;37.00;19.58;;;;;;;2.91;100.00;99795.31;4875925;29;20411;-76
2021/12/04 08:57:58;;;;;;;36.88;19.30;;;;;;;2.95;100.00;99793.31;4876100;29;20037;-75
2021/12/04 09:00:29;;;;;;;35.45;20.35;;;;;;;2.94;100.00;99796.88;4873931;29;20575;-76
2021/12/04 09:02:55;;;;;;;33.80;18.83;;;;;;;2.99;100.00;99793.91;4875828;29;20510;-75
2021/12/04 09:05:22;;;;;;;37.15;20.63;;;;;;;3.02;100.00;99799.66;4889418;29;20051;-75
2021/12/04 09:07:50;;;;;;;34.00;20.10;;;;;;;3.03;100.00;99797.88;4890325;29;20036;-75
2021/12/04 09:10:17;;;;;;;34.70;19.92;;;;;;;3.04;100.00;99797.78;4875982;29;20040;-75
2021/12/04 09:12:43;;;;;;;37.00;20.70;;;;;;;3.03;100.00;99797.88;4890829;29;20047;-75
2021/12/04 09:15:13;;;;;;;35.72;20.23;;;;;;;3.00;100.00;99798.97;4874930;29;20135;-75
2021/12/04 09:17:38;;;;;;;33.53;19.55;;;;;;;3.04;100.00;99784.81;4884147;29;20037;-76
2021/12/04 09:20:06;;;;;;;32.97;19.23;;;;;;;3.09;100.00;99792.25;4867943;29;20071;-76
2021/12/04 09:22:35;;;;;;;37.47;19.73;;;;;;;2.98;100.00;99784.50;4888454;29;20135;-75
2021/12/04 09:25:06;;;;;;;31.25;18.35;;;;;;;3.00;100.00;99785.19;4875604;29;20547;-75
2021/12/04 09:33:08;;;;;;;34.38;19.42;;;;;;;2.93;100.00;99783.06;4892424;29;20519;-75
2021/12/04 09:35:51;;;;;;;35.25;20.05;;;;;;;3.02;100.00;99778.94;4889238;29;20059;-74
2021/12/04 10:06:03;;;;;;;22.50;13.98;;;;;;;3.16;100.00;99758.88;4887312;29;20092;-76
2021/12/04 10:11:58;;;;;;;24.83;15.60;;;;;;;3.19;100.00;99758.63;4878233;29;20159;-76
2021/12/04 10:20:11;;;;;;;25.65;15.25;;;;;;;3.11;100.00;99748.91;4888101;29;20131;-76
2021/12/04 10:23:00;;;;;;;25.35;14.85;;;;;;;3.09;100.00;99743.00;4886339;29;20036;-76
2021/12/04 10:33:47;;;;;;;27.90;17.05;;;;;;;3.26;100.00;99726.91;4889934;29;20036;-76
2021/12/04 10:36:31;;;;;;;30.52;16.08;;;;;;;3.22;100.00;99722.94;4891059;29;20561;-76
2021/12/04 10:38:58;;;;;;;28.95;16.02;;;;;;;3.29;100.00;99723.25;4874107;29;20024;-75
2021/12/04 10:41:32;;;;;;;27.30;16.35;;;;;;;3.31;100.00;99723.94;4892653;29;20072;-76
2021/12/04 10:44:21;;;;;;;26.08;15.77;;;;;;;3.33;100.00;99729.00;4874808;29;20114;-75
2021/12/04 10:46:55;;;;;;;25.75;16.48;;;;;;;3.26;100.00;99732.09;4857915;29;20051;-76
2021/12/04 10:49:37;;;;;;;28.23;15.48;;;;;;;3.25;100.00;99719.25;4892212;29;20041;-75
2021/12/04 10:52:05;;;;;;;25.73;15.30;;;;;;;3.34;100.00;99728.06;4865734;29;20182;-76
2021/12/04 10:54:38;;;;;;;25.90;15.40;;;;;;;3.28;100.00;99717.25;4879473;29;20049;-75
2021/12/04 11:02:27;;;;;;;26.95;16.70;;;;;;;3.26;100.00;99708.78;4891770;29;20056;-76
2021/12/04 11:05:03;;;;;;;24.63;15.70;;;;;;;3.30;100.00;99704.97;4872269;29;20123;-77
2021/12/04 11:24:39;;;;;;;22.92;14.85;;;;;;;3.39;100.00;99705.16;4878739;29;20411;-76
2021/12/04 11:35:54;;;;;;;24.65;15.95;;;;;;;3.41;100.00;99690.31;4891414;29;20040;-76
2021/12/04 11:43:16;;;;;;;24.35;15.80;;;;;;;3.40;100.00;99666.16;4878656;29;20048;-76
2021/12/04 11:45:59;;;;;;;28.08;18.10;;;;;;;3.48;100.00;99674.16;4888302;29;20044;-76
2021/12/04 11:48:35;;;;;;;26.25;17.10;;;;;;;3.44;100.00;99671.91;4890910;29;20092;-76
2021/12/04 11:51:04;;;;;;;31.85;18.60;;;;;;;3.42;100.00;99666.03;4867544;29;20592;-75
2021/12/04 11:53:33;;;;;;;29.38;18.60;;;;;;;3.44;100.00;99666.72;4881104;29;20053;-75
2021/12/04 11:55:59;;;;;;;30.98;19.15;;;;;;;3.39;100.00;99656.75;4897106;29;20032;-75
2021/12/04 11:58:28;;;;;;;31.50;19.02;;;;;;;3.28;100.00;99656.81;4895363;29;20073;-75
2021/12/04 12:00:58;;;;;;;30.00;19.35;;;;;;;3.32;100.00;99650.44;4894087;29;20032;-75
2021/12/04 12:03:26;;;;;;;29.08;19.27;;;;;;;3.29;100.00;99654.06;4888835;29;20554;-76
2021/12/04 12:05:59;;;;;;;29.13;19.48;;;;;;;3.26;100.00;99646.56;4878145;29;20044;-75
2021/12/04 12:08:33;;;;;;;34.13;19.10;;;;;;;3.20;100.00;99654.03;4876238;29;20048;-75
2021/12/04 12:11:01;;;;;;;31.42;19.20;;;;;;;3.23;100.00;99656.38;4892178;29;20051;-76
2021/12/04 12:13:49;;;;;;;31.48;19.45;;;;;;;3.13;100.00;99643.34;4887335;29;20044;-76
2021/12/04 12:16:17;;;;;;;28.50;17.98;;;;;;;3.14;100.00;99646.75;4875582;29;20080;-76
2021/12/04 12:18:55;;;;;;;28.77;17.73;;;;;;;3.17;100.00;99657.69;4861494;29;20039;-75
2021/12/04 12:21:27;;;;;;;27.98;17.55;;;;;;;3.18;100.00;99659.31;4891635;29;20063;-74
2021/12/04 12:27:01;;;;;;;32.47;18.23;;;;;;;3.07;100.00;99660.22;4885940;29;19923;-76
2021/12/04 12:37:50;;;;;;;29.52;18.40;;;;;;;3.18;100.00;99667.09;4892087;29;20472;-76
2021/12/04 12:40:18;;;;;;;33.08;19.77;;;;;;;3.10;100.00;99670.31;4891554;29;20518;-76
2021/12/04 12:42:44;;;;;;;32.75;18.92;;;;;;;3.09;100.00;99660.91;4876407;29;20140;-76
2021/12/04 12:45:14;;;;;;;31.40;18.25;;;;;;;3.05;100.00;99662.13;4875152;29;20036;-77
2021/12/04 12:48:00;;;;;;;30.00;19.08;;;;;;;3.04;100.00;99662.22;4887630;29;20040;-76
2021/12/04 12:50:33;;;;;;;33.47;19.95;;;;;;;3.02;100.00;99659.75;4886002;29;20044;-76
2021/12/04 12:53:01;;;;;;;35.70;20.50;;;;;;;3.03;100.00;99652.81;4888914;29;20048;-76
2021/12/04 12:55:32;;;;;;;31.05;20.60;;;;;;;2.94;100.00;99649.22;4873067;29;20033;-76
2021/12/04 12:58:10;;;;;;;34.08;20.33;;;;;;;2.99;100.00;99646.22;4889907;29;20511;-75
2021/12/04 13:12:03;;;;;;;35.47;20.48;;;;;;;2.93;100.00;99614.69;4885696;29;20043;-77
2021/12/04 13:14:46;;;;;;;35.78;22.33;;;;;;;2.94;100.00;99618.13;4868920;29;20104;-76
2021/12/04 13:17:22;;;;;;;;;;;;;;;2.95;100.00;99611.16;4891063;29;20161;-76
2021/12/04 13:19:52;;;;;;;39.28;22.65;;;;;;;2.96;100.00;99599.84;4883235;29;19919;-77
2021/12/04 13:22:29;;;;;;;39.17;23.42;;;;;;;2.91;100.00;99597.63;4871282;29;20064;-76
2021/12/04 13:24:59;;;;;;;35.10;21.25;;;;;;;2.94;100.00;99592.22;4891486;29;20101;-76
2021/12/04 13:29:58;;;;;;;34.20;21.88;;;;;;;3.03;100.00;99590.63;4893384;29;20376;-75
2021/12/04 13:32:32;;;;;;;38.65;22.20;;;;;;;2.95;100.00;99583.50;4886200;29;20036;-77
2021/12/04 13:35:07;;;;;;;34.55;21.08;;;;;;;2.91;100.00;99571.75;4879468;29;20695;-77
2021/12/04 13:37:33;;;;;;;36.03;21.90;;;;;;;2.96;100.00;99577.38;4908350;29;21399;-75
2021/12/04 13:40:04;;;;;;;39.03;21.42;;;;;;;2.94;100.00;99568.91;4894346;29;20111;-77
2021/12/04 13:42:32;;;;;;;34.25;21.75;;;;;;;2.95;100.00;99569.72;4893974;29;20068;-74
2021/12/04 13:45:08;;;;;;;34.58;20.45;;;;;;;2.89;100.00;99566.69;4859322;29;20619;-76
2021/12/04 13:47:34;;;;;;;32.70;19.90;;;;;;;2.96;100.00;99566.16;4881515;29;20530;-76
2021/12/04 13:50:00;;;;;;;31.88;19.73;;;;;;;3.01;100.00;99558.84;4894426;29;20803;-76
2021/12/04 13:52:31;;;;;;;33.92;20.05;;;;;;;2.99;100.00;99561.56;4889786;29;20049;-76
2021/12/04 13:55:10;;;;;;;29.15;20.27;;;;;;;2.97;100.00;99552.28;4885365;29;20036;-76
2021/12/04 13:57:40;;;;;;;32.67;19.75;;;;;;;2.90;100.00;99552.78;4876997;29;20040;-77
2021/12/04 14:00:08;;;;;;;35.70;20.45;;;;;;;2.90;100.00;99542.44;4895003;29;20084;-77
2021/12/04 14:02:34;;;;;;;31.08;19.70;;;;;;;2.93;100.00;99538.75;4892583;29;20040;-76
2021/12/04 14:05:06;;;;;;;27.02;18.13;;;;;;;2.90;100.00;99539.00;4893902;29;20044;-75
2021/12/04 14:07:34;;;;;;;26.42;17.67;;;;;;;3.02;100.00;99545.78;4876696;29;20033;-76
2021/12/04 14:10:11;;;;;;;25.02;17.70;;;;;;;2.96;100.00;99556.66;4879686;29;20131;-76
2021/12/04 14:12:37;;;;;;;27.08;17.25;;;;;;;3.00;100.00;99558.03;4863431;29;20735;-77
2021/12/04 14:15:10;;;;;;;28.83;18.27;;;;;;;2.98;100.00;99559.94;4894538;29;20049;-75
2021/12/04 14:17:36;;;;;;;26.70;17.30;;;;;;;2.93;100.00;99551.72;4878639;29;20419;-76
2021/12/04 14:20:03;;;;;;;21.52;14.85;;;;;;;2.99;100.00;99553.78;4894750;29;20040;-76
2021/12/04 14:22:29;;;;;;;24.17;16.15;;;;;;;3.09;100.00;99546.09;4877646;29;20044;-76
2021/12/04 14:24:59;;;;;;;22.23;15.70;;;;;;;3.05;100.00;99542.94;4880666;29;20107;-77